createdAt,value
2018-07-01T00:00:14.212Z,51.60
2018-07-01T00:05:11.592Z,52.00
2018-07-01T00:07:40.045Z,52.10
2018-07-01T00:10:09.526Z,52.20
2018-07-01T00:15:13.008Z,52.50
2018-07-01T00:17:41.481Z,52.70
2018-07-01T00:20:10.685Z,53.00
2018-07-01T00:22:39.537Z,52.90
2018-07-01T00:25:08.568Z,53.10
2018-07-01T00:27:37.336Z,53.10
2018-07-01T00:30:06.591Z,53.30
2018-07-01T00:37:32.173Z,53.70
2018-07-01T00:40:00.682Z,53.70
2018-07-01T00:42:29.179Z,54.10
2018-07-01T00:44:57.790Z,54.20
2018-07-01T00:47:26.562Z,54.60
2018-07-01T00:52:29.836Z,55.00
2018-07-01T00:54:58.690Z,55.00
2018-07-01T00:57:27.371Z,55.20
2018-07-01T00:59:56.216Z,55.10
2018-07-01T01:02:25.090Z,55.20
2018-07-01T01:04:53.568Z,55.20
2018-07-01T01:07:22.298Z,55.40
2018-07-01T01:09:50.793Z,55.40
2018-07-01T01:14:47.469Z,56.00
2018-07-01T01:17:16.216Z,55.80
2018-07-01T01:19:44.681Z,56.10
2018-07-01T01:22:13.221Z,56.10
2018-07-01T01:24:41.932Z,56.20
2018-07-01T01:27:10.586Z,56.40
2018-07-01T01:29:39.171Z,56.40
2018-07-01T01:32:08.085Z,56.40
2018-07-01T01:34:36.785Z,56.50
2018-07-01T01:37:05.902Z,56.40
2018-07-01T01:42:11.705Z,56.80
2018-07-01T01:44:52.276Z,56.70
2018-07-01T01:47:59.307Z,56.80
2018-07-01T01:50:32.913Z,57.40
2018-07-01T01:54:05.582Z,57.90
2018-07-01T01:56:38.629Z,57.80
2018-07-01T01:59:20.917Z,57.80
2018-07-01T02:04:31.445Z,57.90
2018-07-01T02:07:03.598Z,58.10
2018-07-01T02:09:34.225Z,58.20
2018-07-01T02:12:04.237Z,58.40
2018-07-01T02:15:03.055Z,58.70
2018-07-01T02:17:34.132Z,58.90
2018-07-01T02:20:02.960Z,59.20
2018-07-01T02:22:38.699Z,59.60
2018-07-01T02:25:11.511Z,59.60
2018-07-01T02:27:40.162Z,60.60
2018-07-01T02:32:37.370Z,60.80
2018-07-01T02:35:06.085Z,60.70
2018-07-01T02:37:34.571Z,60.90
2018-07-01T02:40:03.681Z,61.20
2018-07-01T02:42:32.801Z,63.00
2018-07-01T02:45:01.216Z,61.70
2018-07-01T02:47:29.989Z,61.70
2018-07-01T02:49:58.769Z,61.70
2018-07-01T02:52:27.553Z,62.90
2018-07-01T02:54:56.011Z,65.00
2018-07-01T02:57:24.583Z,62.60
2018-07-01T03:02:21.982Z,62.60
2018-07-01T03:04:50.482Z,61.80
2018-07-01T03:07:18.900Z,62.00
2018-07-01T03:09:47.533Z,62.50
2018-07-01T03:12:16.004Z,63.60
2018-07-01T03:14:44.709Z,63.70
2018-07-01T03:17:13.493Z,64.00
2018-07-01T03:19:42.612Z,63.60
2018-07-01T03:22:11.166Z,62.80
2018-07-01T03:24:39.995Z,62.90
2018-07-01T03:27:08.411Z,62.60
2018-07-01T03:29:37.073Z,62.80
2018-07-01T03:32:05.558Z,62.80
2018-07-01T03:34:34.075Z,63.20
2018-07-01T03:37:03.123Z,62.10
2018-07-01T03:39:31.663Z,62.80
2018-07-01T03:42:00.196Z,64.20
2018-07-01T03:44:29.021Z,64.20
2018-07-01T03:46:57.787Z,63.70
2018-07-01T03:49:26.229Z,63.90
2018-07-01T03:51:54.805Z,64.90
2018-07-01T03:54:23.440Z,65.70
2018-07-01T03:56:51.836Z,65.20
2018-07-01T03:59:20.289Z,67.10
2018-07-01T04:01:48.842Z,66.90
2018-07-01T04:04:17.269Z,68.00
2018-07-01T04:09:13.897Z,68.10
2018-07-01T04:11:42.698Z,67.10
2018-07-01T04:16:40.478Z,68.90
2018-07-01T04:21:37.045Z,69.90
2018-07-01T04:26:35.283Z,69.90
2018-07-01T04:29:03.906Z,67.80
2018-07-01T04:34:00.457Z,69.20
2018-07-01T04:38:57.505Z,69.70
2018-07-01T04:41:25.980Z,67.10
2018-07-01T04:43:54.537Z,67.40
2018-07-01T04:46:23.083Z,67.10
2018-07-01T04:48:51.517Z,68.80
2018-07-01T04:51:19.998Z,68.40
2018-07-01T04:53:48.453Z,68.50
2018-07-01T04:56:16.884Z,68.50
2018-07-01T04:58:45.340Z,69.20
2018-07-01T05:01:13.814Z,70.40
2018-07-01T05:03:42.297Z,69.70
2018-07-01T05:06:10.777Z,69.90
2018-07-01T05:08:39.362Z,71.50
2018-07-01T05:11:07.893Z,70.00
2018-07-01T05:16:04.754Z,70.60
2018-07-01T05:18:33.616Z,70.40
2018-07-01T05:21:02.122Z,70.50
2018-07-01T05:23:30.646Z,68.20
2018-07-01T05:25:59.117Z,69.20
2018-07-01T05:28:27.681Z,69.30
2018-07-01T05:30:56.117Z,68.80
2018-07-01T05:33:24.640Z,68.20
2018-07-01T05:35:53.196Z,68.40
2018-07-01T05:38:21.675Z,68.20
2018-07-01T05:40:50.176Z,68.00
2018-07-01T05:43:18.813Z,68.80
2018-07-01T05:45:47.736Z,68.80
2018-07-01T05:48:16.168Z,66.50
2018-07-01T05:50:44.850Z,67.10
2018-07-01T05:53:13.520Z,64.10
2018-07-01T05:55:42.636Z,63.60
2018-07-01T05:58:11.173Z,62.70
2018-07-01T06:00:39.626Z,62.30
2018-07-01T06:03:08.158Z,62.60
2018-07-01T06:05:36.687Z,62.60
2018-07-01T06:08:05.201Z,61.40
2018-07-01T06:10:33.683Z,60.60
2018-07-01T06:13:02.303Z,61.50
2018-07-01T06:15:30.794Z,60.40
2018-07-01T06:17:59.273Z,60.70
2018-07-01T06:20:28.185Z,61.30
2018-07-01T06:22:56.667Z,60.70
2018-07-01T06:25:25.130Z,61.00
2018-07-01T06:27:53.637Z,60.30
2018-07-01T06:30:22.437Z,59.70
2018-07-01T06:32:50.929Z,59.50
2018-07-01T06:35:19.809Z,59.50
2018-07-01T06:37:48.365Z,59.20
2018-07-01T06:40:16.950Z,60.00
2018-07-01T06:42:45.410Z,59.60
2018-07-01T06:45:20.340Z,58.70
2018-07-01T06:47:48.842Z,59.20
2018-07-01T06:50:17.345Z,58.50
2018-07-01T06:52:46.050Z,58.20
2018-07-01T06:57:43.223Z,58.60
2018-07-01T07:00:11.833Z,58.30
2018-07-01T07:02:40.518Z,57.90
2018-07-01T07:05:09.055Z,57.50
2018-07-01T07:10:06.102Z,57.00
2018-07-01T07:12:34.550Z,57.60
2018-07-01T07:15:03.473Z,57.10
2018-07-01T07:17:32.040Z,56.30
2018-07-01T07:20:00.883Z,57.10
2018-07-01T07:22:29.425Z,56.70
2018-07-01T07:24:57.908Z,56.50
2018-07-01T07:27:26.398Z,56.30
2018-07-01T07:29:54.848Z,56.10
2018-07-01T07:32:23.551Z,55.80
2018-07-01T07:34:52.577Z,55.60
2018-07-01T07:37:21.052Z,55.40
2018-07-01T07:39:49.690Z,54.60
2018-07-01T07:42:18.249Z,54.70
2018-07-01T07:44:46.980Z,54.30
2018-07-01T07:47:16.038Z,54.40
2018-07-01T07:49:44.570Z,53.90
2018-07-01T07:52:13.144Z,53.60
2018-07-01T07:54:41.985Z,53.90
2018-07-01T07:57:10.539Z,54.30
2018-07-01T07:59:39.196Z,53.70
2018-07-01T08:02:08.118Z,54.00
2018-07-01T08:04:36.586Z,53.80
2018-07-01T08:07:05.164Z,53.40
2018-07-01T08:09:33.929Z,53.60
2018-07-01T08:12:02.528Z,52.20
2018-07-01T08:14:31.502Z,52.20
2018-07-01T08:17:00.124Z,52.20
2018-07-01T08:21:56.970Z,51.50
2018-07-01T08:24:25.667Z,51.70
2018-07-01T08:26:54.159Z,50.00
2018-07-01T08:29:22.708Z,51.00
2018-07-01T08:31:51.399Z,51.70
2018-07-01T08:34:20.589Z,51.80
2018-07-01T08:36:49.207Z,51.30
2018-07-01T08:42:31.414Z,49.90
2018-07-01T08:47:29.676Z,49.20
2018-07-01T08:49:58.457Z,49.70
2018-07-01T08:52:27.007Z,49.10
2018-07-01T08:54:55.485Z,48.10
2018-07-01T08:57:24.565Z,48.20
2018-07-01T08:59:53.127Z,47.70
2018-07-01T09:02:22.556Z,48.20
2018-07-01T09:07:19.832Z,47.70
2018-07-01T09:09:48.883Z,46.20
2018-07-01T09:12:18.470Z,46.40
2018-07-01T09:14:47.062Z,47.70
2018-07-01T09:17:16.270Z,45.90
2018-07-01T09:19:45.180Z,46.20
2018-07-01T09:22:13.813Z,45.70
2018-07-01T09:24:42.373Z,45.10
2018-07-01T09:27:11.031Z,45.20
2018-07-01T09:32:12.986Z,45.00
2018-07-01T09:34:42.225Z,44.10
2018-07-01T09:37:10.924Z,43.60
2018-07-01T09:39:40.135Z,43.60
2018-07-01T09:42:08.829Z,44.00
2018-07-01T09:44:37.289Z,43.70
2018-07-01T09:47:05.862Z,44.00
2018-07-01T09:49:34.668Z,44.50
2018-07-01T09:52:03.226Z,44.10
2018-07-01T09:57:00.530Z,44.40
2018-07-01T09:59:29.709Z,44.50
2018-07-01T10:01:58.599Z,44.80
2018-07-01T10:04:27.095Z,44.20
2018-07-01T10:06:55.937Z,42.80
2018-07-01T10:11:52.936Z,43.10
2018-07-01T10:16:49.678Z,42.60
2018-07-01T10:19:18.283Z,40.90
2018-07-01T10:21:46.842Z,40.30
2018-07-01T10:24:15.381Z,42.20
2018-07-01T10:26:44.079Z,42.10
2018-07-01T10:29:14.210Z,40.70
2018-07-01T10:31:43.952Z,41.10
2018-07-01T10:34:13.375Z,42.70
2018-07-01T10:36:41.854Z,42.70
2018-07-01T10:39:13.462Z,42.60
2018-07-01T10:41:42.098Z,42.10
2018-07-01T10:44:11.422Z,40.70
2018-07-01T10:46:39.968Z,40.40
2018-07-01T10:49:08.822Z,40.10
2018-07-01T10:51:37.875Z,39.70
2018-07-01T10:54:06.907Z,39.60
2018-07-01T10:59:04.088Z,40.80
2018-07-01T11:06:29.379Z,40.30
2018-07-01T11:08:57.836Z,41.10
2018-07-01T11:11:26.802Z,40.30
2018-07-01T11:13:55.949Z,41.20
2018-07-01T11:16:24.974Z,39.50
2018-07-01T11:18:53.542Z,40.10
2018-07-01T11:21:22.427Z,41.00
2018-07-01T11:23:50.877Z,40.60
2018-07-01T11:26:19.393Z,40.30
2018-07-01T11:28:48.216Z,40.20
2018-07-01T11:31:16.798Z,39.90
2018-07-01T11:36:14.019Z,39.50
2018-07-01T11:38:42.832Z,40.40
2018-07-01T11:43:40.211Z,40.60
2018-07-01T11:48:37.372Z,40.30
2018-07-01T11:51:05.976Z,41.20
2018-07-01T11:53:34.926Z,41.90
2018-07-01T11:56:03.402Z,42.50
2018-07-01T11:58:32.206Z,41.60
2018-07-01T12:01:01.654Z,41.50
2018-07-01T12:03:30.765Z,41.90
2018-07-01T12:05:59.305Z,40.70
2018-07-01T12:08:28.078Z,41.30
2018-07-01T12:10:56.600Z,40.80
2018-07-01T12:13:25.101Z,41.00
2018-07-01T12:15:53.684Z,43.30
2018-07-01T12:18:22.636Z,41.40
2018-07-01T12:23:20.122Z,39.70
2018-07-01T12:25:48.990Z,39.20
2018-07-01T12:28:18.417Z,40.10
2018-07-01T12:33:15.266Z,40.60
2018-07-01T12:35:43.865Z,39.70
2018-07-01T12:38:12.689Z,40.30
2018-07-01T12:40:41.443Z,38.80
2018-07-01T12:43:09.936Z,39.60
2018-07-01T12:45:38.796Z,39.20
2018-07-01T12:48:07.491Z,39.50
2018-07-01T12:53:04.904Z,39.60
2018-07-01T12:55:33.554Z,40.70
2018-07-01T12:58:02.024Z,41.30
2018-07-01T13:02:58.640Z,40.50
2018-07-01T13:05:27.173Z,40.10
2018-07-01T13:07:55.788Z,40.90
2018-07-01T13:10:24.339Z,42.00
2018-07-01T13:12:52.949Z,40.40
2018-07-01T13:15:21.646Z,40.20
2018-07-01T13:17:50.326Z,39.80
2018-07-01T13:20:18.957Z,39.70
2018-07-01T13:25:15.823Z,40.00
2018-07-01T13:27:44.406Z,41.00
2018-07-01T13:30:12.929Z,40.50
2018-07-01T13:32:41.437Z,40.80
2018-07-01T13:35:10.000Z,39.40
2018-07-01T13:37:38.553Z,39.70
2018-07-01T13:40:07.178Z,40.70
2018-07-01T13:42:35.738Z,41.10
2018-07-01T13:45:05.129Z,39.70
2018-07-01T13:47:33.670Z,40.10
2018-07-01T13:50:02.333Z,40.20
2018-07-01T13:52:30.847Z,41.20
2018-07-01T13:55:00.098Z,40.20
2018-07-01T13:57:28.646Z,40.90
2018-07-01T14:02:25.496Z,40.70
2018-07-01T14:04:53.933Z,40.10
2018-07-01T14:07:22.471Z,39.70
2018-07-01T14:09:50.990Z,39.70
2018-07-01T14:12:19.990Z,39.90
2018-07-01T14:14:48.811Z,40.60
2018-07-01T14:17:18.330Z,39.30
2018-07-01T14:19:47.001Z,40.50
2018-07-01T14:22:15.513Z,39.90
2018-07-01T14:27:12.350Z,40.20
2018-07-01T14:29:41.232Z,41.00
2018-07-01T14:32:10.077Z,39.80
2018-07-01T14:34:38.598Z,40.50
2018-07-01T14:37:07.489Z,39.60
2018-07-01T14:39:36.071Z,38.90
2018-07-01T14:42:04.953Z,39.90
2018-07-01T14:44:33.413Z,39.00
2018-07-01T14:47:02.014Z,39.10
2018-07-01T14:49:30.535Z,39.00
2018-07-01T14:51:58.991Z,38.20
2018-07-01T14:54:27.758Z,39.40
2018-07-01T14:56:56.647Z,38.50
2018-07-01T14:59:25.103Z,38.60
2018-07-01T15:01:53.558Z,38.70
2018-07-01T15:04:22.103Z,38.60
2018-07-01T15:06:50.679Z,38.60
2018-07-01T15:09:19.530Z,38.00
2018-07-01T15:11:48.258Z,38.20
2018-07-01T15:14:16.770Z,39.80
2018-07-01T15:16:46.150Z,40.00
2018-07-01T15:19:15.289Z,39.00
2018-07-01T15:21:43.892Z,39.60
2018-07-01T15:24:12.688Z,39.00
2018-07-01T15:26:41.153Z,39.30
2018-07-01T15:29:09.730Z,39.20
2018-07-01T15:31:38.677Z,39.70
2018-07-01T15:34:07.144Z,38.70
2018-07-01T15:36:36.114Z,39.20
2018-07-01T15:39:07.735Z,38.90
2018-07-01T15:41:36.458Z,38.50
2018-07-01T15:44:05.035Z,38.20
2018-07-01T15:46:33.540Z,38.10
2018-07-01T15:49:02.224Z,39.60
2018-07-01T15:51:30.750Z,38.60
2018-07-01T15:53:59.365Z,37.10
2018-07-01T15:56:28.111Z,38.50
2018-07-01T15:58:56.636Z,38.10
2018-07-01T16:01:25.127Z,37.90
2018-07-01T16:03:53.702Z,38.60
2018-07-01T16:06:22.401Z,38.40
2018-07-01T16:08:50.940Z,38.30
2018-07-01T16:11:19.779Z,38.10
2018-07-01T16:13:48.517Z,38.30
2018-07-01T16:16:17.781Z,39.10
2018-07-01T16:18:46.305Z,38.70
2018-07-01T16:21:14.985Z,38.30
2018-07-01T16:23:43.709Z,39.60
2018-07-01T16:26:17.576Z,37.80
2018-07-01T16:31:19.651Z,38.80
2018-07-01T16:33:48.182Z,38.60
2018-07-01T16:36:16.761Z,38.80
2018-07-01T16:38:45.641Z,38.00
2018-07-01T16:41:14.198Z,37.60
2018-07-01T16:46:11.717Z,37.60
2018-07-01T16:48:40.247Z,38.00
2018-07-01T16:51:09.363Z,38.40
2018-07-01T16:53:38.344Z,38.60
2018-07-01T16:56:07.026Z,38.80
2018-07-01T16:58:36.067Z,38.80
2018-07-01T17:01:04.683Z,39.70
2018-07-01T17:03:33.161Z,39.00
2018-07-01T17:06:01.741Z,39.10
2018-07-01T17:08:30.353Z,39.10
2018-07-01T17:10:58.877Z,38.70
2018-07-01T17:13:27.468Z,39.00
2018-07-01T17:15:56.079Z,38.60
2018-07-01T17:18:24.645Z,38.70
2018-07-01T17:20:53.603Z,38.60
2018-07-01T17:23:22.316Z,39.50
2018-07-01T17:25:54.850Z,39.10
2018-07-01T17:30:58.610Z,38.70
2018-07-01T17:33:28.438Z,39.10
2018-07-01T17:35:57.200Z,39.30
2018-07-01T17:38:26.370Z,39.20
2018-07-01T17:40:54.914Z,39.60
2018-07-01T17:43:23.492Z,38.80
2018-07-01T17:45:52.313Z,39.40
2018-07-01T17:48:20.887Z,40.00
2018-07-01T17:50:49.500Z,40.40
2018-07-01T17:53:29.385Z,39.50
2018-07-01T17:55:58.150Z,39.60
2018-07-01T17:58:26.743Z,40.80
2018-07-01T18:00:55.651Z,40.20
2018-07-01T18:05:52.441Z,39.50
2018-07-01T18:08:21.017Z,39.50
2018-07-01T18:10:49.808Z,40.00
2018-07-01T18:13:18.314Z,40.80
2018-07-01T18:18:15.043Z,40.10
2018-07-01T18:20:43.588Z,40.20
2018-07-01T18:25:46.821Z,40.30
2018-07-01T18:28:26.505Z,40.50
2018-07-01T18:35:40.532Z,41.70
2018-07-01T18:38:09.437Z,41.20
2018-07-01T18:40:37.981Z,41.00
2018-07-01T18:43:06.816Z,41.80
2018-07-01T18:45:35.714Z,42.10
2018-07-01T18:48:04.296Z,42.00
2018-07-01T18:50:32.920Z,41.30
2018-07-01T18:53:01.469Z,41.50
2018-07-01T18:55:29.924Z,42.00
2018-07-01T18:57:58.554Z,42.50
2018-07-01T19:00:27.372Z,41.90
2018-07-01T19:02:55.853Z,42.10
2018-07-01T19:05:24.362Z,41.90
2018-07-01T19:07:52.994Z,42.10
2018-07-01T19:10:21.990Z,42.70
2018-07-01T19:12:50.430Z,42.30
2018-07-01T19:15:19.562Z,42.20
2018-07-01T19:17:48.116Z,42.00
2018-07-01T19:20:16.595Z,42.30
2018-07-01T19:22:45.051Z,43.00
2018-07-01T19:25:13.638Z,43.70
2018-07-01T19:27:42.156Z,43.70
2018-07-01T19:30:10.646Z,43.50
2018-07-01T19:32:39.290Z,43.70
2018-07-01T19:35:07.905Z,43.60
2018-07-01T19:40:05.372Z,44.30
2018-07-01T19:42:34.039Z,44.30
2018-07-01T19:47:30.762Z,44.20
2018-07-01T19:49:59.771Z,44.90
2018-07-01T19:52:28.410Z,44.40
2018-07-01T19:54:57.075Z,44.80
2018-07-01T19:57:25.597Z,44.50
2018-07-01T19:59:54.162Z,44.60
2018-07-01T20:02:22.656Z,45.10
2018-07-01T20:04:51.112Z,44.90
2018-07-01T20:07:19.632Z,44.80
2018-07-01T20:09:48.149Z,45.40
2018-07-01T20:12:17.284Z,45.80
2018-07-01T20:14:46.980Z,46.70
2018-07-01T20:17:15.990Z,46.00
2018-07-01T20:19:44.923Z,45.40
2018-07-01T20:22:13.430Z,44.50
2018-07-01T20:24:42.154Z,45.00
2018-07-01T20:27:10.978Z,44.60
2018-07-01T20:29:39.486Z,45.50
2018-07-01T20:32:08.216Z,46.50
2018-07-01T20:34:36.966Z,45.20
2018-07-01T20:37:05.583Z,45.70
2018-07-01T20:39:34.376Z,45.00
2018-07-01T20:42:02.890Z,45.00
2018-07-01T20:44:31.365Z,45.30
2018-07-01T20:47:00.008Z,45.30
2018-07-01T20:49:28.600Z,44.20
2018-07-01T20:51:57.280Z,44.30
2018-07-01T20:54:25.787Z,44.40
2018-07-01T20:56:54.509Z,44.60
2018-07-01T20:59:22.966Z,44.40
2018-07-01T21:01:51.915Z,44.30
2018-07-01T21:06:49.402Z,45.30
2018-07-01T21:09:17.901Z,45.50
2018-07-01T21:11:46.558Z,45.80
2018-07-01T21:14:15.021Z,45.30
2018-07-01T21:16:43.629Z,45.40
2018-07-01T21:21:40.659Z,46.70
2018-07-01T21:24:09.305Z,46.80
2018-07-01T21:26:38.093Z,46.20
2018-07-01T21:29:06.634Z,46.50
2018-07-01T21:31:35.242Z,46.00
2018-07-01T21:34:03.792Z,46.70
2018-07-01T21:36:32.533Z,46.40
2018-07-01T21:39:01.225Z,46.50
2018-07-01T21:41:30.355Z,46.50
2018-07-01T21:46:27.783Z,47.30
2018-07-01T21:48:56.485Z,46.90
2018-07-01T21:51:25.237Z,47.10
2018-07-01T21:53:53.877Z,48.10
2018-07-01T21:56:22.873Z,47.30
2018-07-01T21:58:52.030Z,47.70
2018-07-01T22:01:20.600Z,47.80
2018-07-01T22:03:49.406Z,48.00
2018-07-01T22:06:17.904Z,47.80
2018-07-01T22:08:46.408Z,48.00
2018-07-01T22:11:55.384Z,48.30
2018-07-01T22:14:33.378Z,48.20
2018-07-01T22:17:02.855Z,48.30
2018-07-01T22:19:31.658Z,48.50
2018-07-01T22:22:00.737Z,48.60
2018-07-01T22:24:30.664Z,48.60
2018-07-01T22:26:59.270Z,49.70
2018-07-01T22:29:27.777Z,49.10
2018-07-01T22:31:56.348Z,49.10
2018-07-01T22:34:25.092Z,49.60
2018-07-01T22:36:54.028Z,49.80
2018-07-01T22:39:24.606Z,50.10
2018-07-01T22:41:54.005Z,50.10
2018-07-01T22:44:22.666Z,49.80
2018-07-01T22:46:52.367Z,50.60
2018-07-01T22:49:20.892Z,50.70
2018-07-01T22:51:49.557Z,50.80
2018-07-01T22:54:18.032Z,50.40
2018-07-01T22:56:46.819Z,50.60
2018-07-01T22:59:15.368Z,50.60
2018-07-01T23:02:57.948Z,51.30
2018-07-01T23:05:26.534Z,51.00
2018-07-01T23:07:55.551Z,52.00
2018-07-01T23:10:25.454Z,51.70
2018-07-01T23:12:54.701Z,52.00
2018-07-01T23:15:23.582Z,51.40
2018-07-01T23:17:52.288Z,51.70
2018-07-01T23:20:20.838Z,51.80
2018-07-01T23:22:49.352Z,51.70
2018-07-01T23:25:18.502Z,52.20
2018-07-01T23:27:47.564Z,52.10
2018-07-01T23:30:16.095Z,52.20
2018-07-01T23:32:45.115Z,53.10
2018-07-01T23:35:14.466Z,53.50
2018-07-01T23:37:43.053Z,53.40
2018-07-01T23:40:12.308Z,53.60
2018-07-01T23:42:41.910Z,54.10
2018-07-01T23:45:13.755Z,54.50
2018-07-01T23:50:11.365Z,54.60
2018-07-01T23:52:39.920Z,55.00
2018-07-01T23:55:09.192Z,55.70
2018-07-01T23:57:37.711Z,55.70
